Terminal Aerodrome Forecast
Issued by NWS Blacksburg, VA

Home | Current Version | Previous Version | Text Only | Print | Product List | Glossary On
Versions: 1 2 3 4 5 6 7 8 9 10 11 12 13 14 15 16 17 18 19
000
FTUS41 KRNK 252341
TAFROA
TAF
KROA 252341Z 2600/2624 02005KT P6SM VCSH BKN035
     FM260600 VRB03KT 4SM BR SCT040
     FM260700 VRB03KT 4SM BR BKN040
     FM260900 00000KT 1 1/2SM BR OVC025
     FM261300 VRB03KT P6SM SCT030=

USA.gov is the U.S. government's official web portal to all federal, state and local government web resources and services.